createdAt,value
2022-12-24T00:00:02.384Z,2.50
2022-12-24T00:02:29.081Z,3.40
2022-12-24T00:05:00.836Z,1.80
2022-12-24T00:07:28.581Z,0.40
2022-12-24T00:09:55.218Z,2.30
2022-12-24T00:12:22.136Z,0.97
2022-12-24T00:14:48.776Z,0.50
2022-12-24T00:17:15.565Z,0.50
2022-12-24T00:19:43.344Z,1.30
2022-12-24T00:22:10.128Z,0.97
2022-12-24T00:24:36.742Z,3.67
2022-12-24T00:27:03.807Z,1.70
2022-12-24T00:29:30.413Z,0.47
2022-12-24T00:31:57.088Z,0.67
2022-12-24T00:34:24.430Z,1.70
2022-12-24T00:36:51.395Z,1.80
2022-12-24T00:39:18.363Z,1.00
2022-12-24T00:41:45.326Z,1.17
2022-12-24T00:44:12.090Z,1.27
2022-12-24T00:46:41.105Z,1.83
2022-12-24T00:49:08.416Z,4.10
2022-12-24T00:51:35.747Z,9.53
2022-12-24T00:54:02.692Z,3.40
2022-12-24T00:56:29.355Z,4.53
2022-12-24T00:58:56.141Z,0.70
2022-12-24T01:01:23.955Z,1.37
2022-12-24T01:03:51.494Z,1.30
2022-12-24T01:06:20.715Z,3.77
2022-12-24T01:08:50.771Z,6.00
2022-12-24T01:11:17.567Z,3.90
2022-12-24T01:13:44.209Z,5.80
2022-12-24T01:16:20.052Z,6.27
2022-12-24T01:18:46.943Z,7.90
2022-12-24T01:21:13.612Z,6.43
2022-12-24T01:23:40.265Z,6.50
2022-12-24T01:26:07.012Z,7.47
2022-12-24T01:28:34.006Z,6.00
2022-12-24T01:31:00.817Z,6.53
2022-12-24T01:33:30.659Z,5.47
2022-12-24T01:35:57.302Z,4.77
2022-12-24T01:38:23.934Z,3.10
2022-12-24T01:41:09.071Z,4.77
2022-12-24T01:43:35.855Z,1.57
2022-12-24T01:46:05.226Z,2.20
2022-12-24T01:48:41.057Z,2.90
2022-12-24T01:51:17.431Z,3.40
2022-12-24T01:53:48.655Z,3.43
2022-12-24T01:56:15.602Z,2.87
2022-12-24T01:58:47.082Z,5.03
2022-12-24T02:01:13.846Z,3.73
2022-12-24T02:03:40.649Z,5.70
2022-12-24T02:06:08.423Z,4.53
2022-12-24T02:08:41.091Z,3.67
2022-12-24T02:11:16.326Z,3.87
2022-12-24T02:13:46.797Z,3.77
2022-12-24T02:16:35.864Z,3.13
2022-12-24T02:19:02.513Z,5.50
2022-12-24T02:21:34.098Z,3.67
2022-12-24T02:24:12.770Z,2.20
2022-12-24T02:27:01.241Z,11.50
2022-12-24T02:29:49.678Z,4.33
2022-12-24T02:32:44.726Z,14.20
2022-12-24T02:35:16.301Z,6.90
2022-12-24T02:37:59.431Z,4.77
2022-12-24T02:40:29.364Z,3.73
2022-12-24T02:42:59.884Z,5.50
2022-12-24T02:45:29.903Z,7.47
2022-12-24T02:47:57.100Z,3.90
2022-12-24T02:50:24.470Z,5.33
2022-12-24T02:52:51.663Z,3.17
2022-12-24T02:55:25.681Z,4.80
2022-12-24T02:58:24.818Z,4.03
2022-12-24T03:01:16.383Z,8.83
2022-12-24T03:03:43.240Z,4.10
2022-12-24T03:06:30.757Z,3.20
2022-12-24T03:09:01.122Z,3.77
2022-12-24T03:11:27.953Z,1.90
2022-12-24T03:13:55.000Z,1.63
2022-12-24T03:16:23.792Z,2.87
2022-12-24T03:18:51.140Z,4.10
2022-12-24T03:21:28.777Z,4.13
2022-12-24T03:23:55.977Z,4.87
2022-12-24T03:26:23.824Z,5.47
2022-12-24T03:28:50.731Z,4.73
2022-12-24T03:31:18.851Z,3.43
2022-12-24T03:33:45.782Z,48.87
2022-12-24T03:36:12.953Z,4.07
2022-12-24T03:38:39.724Z,4.70
2022-12-24T03:41:08.007Z,5.07
2022-12-24T03:43:34.870Z,4.30
2022-12-24T03:46:08.110Z,4.20
2022-12-24T03:48:35.851Z,1.60
2022-12-24T03:51:02.873Z,1.33
2022-12-24T03:53:29.575Z,1.63
2022-12-24T03:55:56.202Z,7.00
2022-12-24T03:58:22.878Z,1.90
2022-12-24T04:00:49.580Z,6.83
2022-12-24T04:03:16.368Z,1.60
2022-12-24T04:05:43.093Z,1.87
2022-12-24T04:08:09.715Z,0.73
2022-12-24T04:10:36.296Z,3.07
2022-12-24T04:13:03.025Z,1.27
2022-12-24T04:15:29.641Z,1.43
2022-12-24T04:17:56.354Z,0.60
2022-12-24T04:20:23.038Z,0.47
2022-12-24T04:22:49.730Z,1.00
2022-12-24T04:25:16.494Z,3.47
2022-12-24T04:27:43.210Z,1.13
2022-12-24T04:30:10.227Z,1.83
2022-12-24T04:32:36.920Z,2.50
2022-12-24T04:35:03.707Z,2.00
2022-12-24T04:37:30.488Z,1.10
2022-12-24T04:39:57.165Z,0.80
2022-12-24T04:42:23.851Z,1.13
2022-12-24T04:44:50.709Z,1.17
2022-12-24T04:47:17.360Z,0.40
2022-12-24T04:49:44.129Z,0.53
2022-12-24T04:52:10.806Z,2.37
2022-12-24T04:54:37.499Z,3.90
2022-12-24T04:57:04.267Z,4.03
2022-12-24T04:59:31.079Z,1.23
2022-12-24T05:01:57.970Z,0.67
2022-12-24T05:04:24.878Z,4.30
2022-12-24T05:06:51.619Z,0.93
2022-12-24T05:09:18.323Z,3.60
2022-12-24T05:11:45.006Z,1.60
2022-12-24T05:14:11.763Z,1.60
2022-12-24T05:16:38.933Z,2.20
2022-12-24T05:19:05.756Z,1.23
2022-12-24T05:21:32.417Z,2.53
2022-12-24T05:24:17.232Z,5.03
2022-12-24T05:26:50.254Z,0.80
2022-12-24T05:29:17.041Z,0.60
2022-12-24T05:31:45.276Z,1.17
2022-12-24T05:34:13.813Z,0.80
2022-12-24T05:36:40.757Z,0.70
2022-12-24T05:39:13.508Z,0.60
2022-12-24T05:41:42.214Z,4.00
2022-12-24T05:44:08.931Z,1.93
2022-12-24T05:46:35.635Z,2.23
2022-12-24T05:49:02.379Z,5.60
2022-12-24T05:51:28.968Z,0.30
2022-12-24T05:53:55.543Z,0.63
2022-12-24T05:56:23.362Z,1.73
2022-12-24T05:58:50.532Z,2.73
2022-12-24T06:01:17.232Z,0.40
2022-12-24T06:03:44.207Z,2.90
2022-12-24T06:06:14.200Z,1.43
2022-12-24T06:08:41.829Z,0.73
2022-12-24T06:11:11.236Z,8.03
2022-12-24T06:13:38.940Z,3.67
2022-12-24T06:16:07.413Z,0.70
2022-12-24T06:18:35.714Z,3.70
2022-12-24T06:21:03.296Z,8.87
2022-12-24T06:23:31.498Z,1.43
2022-12-24T06:26:00.967Z,1.17
2022-12-24T06:28:28.998Z,0.83
2022-12-24T06:31:02.109Z,1.13
2022-12-24T06:33:29.800Z,9.30
2022-12-24T06:35:56.458Z,2.20
2022-12-24T06:38:23.089Z,1.03
2022-12-24T06:40:49.856Z,6.10
2022-12-24T06:43:16.978Z,0.87
2022-12-24T06:45:47.969Z,2.30
2022-12-24T06:48:15.997Z,5.27
2022-12-24T06:50:43.036Z,0.60
2022-12-24T06:53:10.477Z,1.10
2022-12-24T06:55:37.134Z,3.33
2022-12-24T06:58:04.679Z,0.70
2022-12-24T07:00:31.679Z,2.50
2022-12-24T07:02:58.723Z,2.97
2022-12-24T07:05:25.537Z,1.50
2022-12-24T07:07:52.175Z,1.40
2022-12-24T07:10:19.894Z,0.97
2022-12-24T07:12:46.772Z,3.57
2022-12-24T07:15:13.957Z,3.80
2022-12-24T07:17:40.843Z,0.63
2022-12-24T07:20:08.994Z,1.27
2022-12-24T07:22:35.779Z,1.30
2022-12-24T07:25:02.396Z,1.80
2022-12-24T07:27:29.085Z,0.90
2022-12-24T07:29:55.843Z,1.40
2022-12-24T07:32:22.505Z,1.53
2022-12-24T07:34:49.130Z,1.50
2022-12-24T07:37:16.359Z,0.90
2022-12-24T07:39:43.028Z,3.40
2022-12-24T07:42:09.715Z,1.43
2022-12-24T07:44:36.439Z,1.87
2022-12-24T07:47:03.238Z,1.20
2022-12-24T07:49:29.897Z,4.87
2022-12-24T07:51:56.552Z,3.10
2022-12-24T07:54:23.403Z,10.27
2022-12-24T07:56:50.020Z,3.50
2022-12-24T07:59:16.768Z,4.00
2022-12-24T08:01:43.685Z,4.43
2022-12-24T08:04:10.716Z,5.80
2022-12-24T08:06:37.684Z,3.30
2022-12-24T08:09:04.580Z,1.80
2022-12-24T08:11:31.455Z,0.40
2022-12-24T08:13:58.163Z,4.07
2022-12-24T08:16:25.043Z,1.87
2022-12-24T08:18:51.716Z,3.87
2022-12-24T08:21:18.472Z,5.90
2022-12-24T08:23:47.010Z,3.13
2022-12-24T08:26:13.866Z,4.13
2022-12-24T08:28:40.718Z,7.47
2022-12-24T08:31:07.573Z,2.60
2022-12-24T08:33:34.258Z,4.60
2022-12-24T08:36:02.166Z,4.80
2022-12-24T08:38:29.060Z,3.77
2022-12-24T08:40:56.071Z,1.23
2022-12-24T08:43:26.143Z,4.33
2022-12-24T08:45:53.034Z,3.23
2022-12-24T08:48:19.959Z,1.80
2022-12-24T08:50:46.871Z,3.87
2022-12-24T08:53:13.964Z,3.77
2022-12-24T08:55:40.679Z,4.00
2022-12-24T08:58:07.258Z,1.50
2022-12-24T09:00:34.055Z,10.23
2022-12-24T09:03:01.048Z,8.50
2022-12-24T09:05:27.991Z,1.10
2022-12-24T09:07:54.723Z,1.20
2022-12-24T09:10:22.022Z,2.43
2022-12-24T09:12:48.926Z,2.93
2022-12-24T09:15:15.756Z,3.93
2022-12-24T09:17:42.555Z,3.67
2022-12-24T09:20:09.808Z,3.60
2022-12-24T09:22:38.068Z,1.53
2022-12-24T09:25:06.457Z,1.37
2022-12-24T09:27:33.468Z,2.03
2022-12-24T09:30:00.277Z,2.70
2022-12-24T09:32:26.989Z,3.97
2022-12-24T09:34:54.299Z,4.70
2022-12-24T09:37:21.118Z,1.17
2022-12-24T09:39:47.922Z,1.33
2022-12-24T09:42:33.112Z,2.17
2022-12-24T09:45:05.652Z,14.47
2022-12-24T09:47:52.472Z,7.93
2022-12-24T09:50:38.487Z,1.70
2022-12-24T09:53:18.529Z,2.00
2022-12-24T09:55:49.043Z,3.73
2022-12-24T09:58:49.214Z,2.53
2022-12-24T10:01:17.430Z,4.40
2022-12-24T10:03:44.455Z,1.90
2022-12-24T10:06:15.853Z,2.63
2022-12-24T10:09:01.339Z,1.63
2022-12-24T10:11:44.461Z,1.80
2022-12-24T10:14:14.174Z,3.43
2022-12-24T10:16:51.417Z,9.23
2022-12-24T10:19:33.793Z,1.43
2022-12-24T10:22:23.351Z,2.30
2022-12-24T10:24:56.599Z,4.10
2022-12-24T10:27:27.022Z,5.63
2022-12-24T10:29:59.221Z,1.97
2022-12-24T10:32:31.893Z,2.77
2022-12-24T10:35:23.442Z,3.30
2022-12-24T10:37:52.724Z,1.40
2022-12-24T10:40:41.268Z,3.50
2022-12-24T10:43:21.843Z,0.97
2022-12-24T10:45:55.511Z,0.90
2022-12-24T10:48:31.099Z,3.57
2022-12-24T10:51:05.906Z,2.37
2022-12-24T10:53:39.109Z,1.23
2022-12-24T10:56:08.401Z,1.63
2022-12-24T10:58:35.681Z,1.67
2022-12-24T11:01:03.098Z,3.93
2022-12-24T11:03:32.884Z,1.20
2022-12-24T11:06:09.893Z,0.93
2022-12-24T11:08:38.901Z,7.57
2022-12-24T11:11:13.728Z,1.27
2022-12-24T11:13:44.696Z,3.97
2022-12-24T11:16:26.448Z,0.90
2022-12-24T11:18:58.129Z,5.00
2022-12-24T11:21:26.958Z,3.17
2022-12-24T11:24:06.924Z,0.93
2022-12-24T11:26:33.813Z,2.87
2022-12-24T11:29:23.316Z,1.33
2022-12-24T11:31:52.788Z,1.13
2022-12-24T11:34:30.703Z,1.80
2022-12-24T11:37:13.909Z,0.70
2022-12-24T11:39:45.417Z,1.40
2022-12-24T11:42:33.700Z,0.47
2022-12-24T11:45:03.060Z,1.70
2022-12-24T11:47:40.714Z,11.40
2022-12-24T11:50:25.452Z,4.57
2022-12-24T11:53:04.126Z,1.17
2022-12-24T11:55:37.023Z,3.90
2022-12-24T11:58:30.932Z,1.10
2022-12-24T12:01:08.784Z,3.63
2022-12-24T12:03:51.875Z,0.67
2022-12-24T12:06:29.290Z,0.93
2022-12-24T12:09:12.211Z,0.83
2022-12-24T12:11:41.090Z,2.50
2022-12-24T12:14:13.783Z,2.20
2022-12-24T12:17:03.852Z,0.73
2022-12-24T12:19:38.280Z,0.83
2022-12-24T12:22:07.094Z,3.73
2022-12-24T12:24:38.256Z,0.67
2022-12-24T12:27:36.281Z,0.73
2022-12-24T12:30:24.569Z,1.70
2022-12-24T12:33:05.037Z,0.93
2022-12-24T12:35:36.048Z,0.97
2022-12-24T12:38:09.608Z,0.40
2022-12-24T12:40:57.573Z,0.40
2022-12-24T12:43:53.319Z,3.80
2022-12-24T12:46:41.221Z,0.67
2022-12-24T12:49:20.171Z,1.27
2022-12-24T12:52:11.763Z,4.13
2022-12-24T12:54:45.071Z,2.40
2022-12-24T12:57:15.400Z,2.23
2022-12-24T12:59:47.676Z,1.63
2022-12-24T13:02:33.125Z,3.10
2022-12-24T13:05:24.472Z,1.07
2022-12-24T13:07:54.109Z,2.00
2022-12-24T13:10:58.981Z,4.97
2022-12-24T13:13:25.645Z,2.97
2022-12-24T13:16:20.652Z,0.90
2022-12-24T13:18:56.618Z,0.30
2022-12-24T13:21:25.869Z,2.10
2022-12-24T13:24:12.823Z,2.73
2022-12-24T13:26:39.586Z,2.50
2022-12-24T13:29:30.476Z,4.50
2022-12-24T13:32:21.939Z,4.10
2022-12-24T13:34:52.711Z,1.70
2022-12-24T13:37:24.584Z,0.80
2022-12-24T13:40:08.471Z,5.00
2022-12-24T13:42:59.182Z,5.43
2022-12-24T13:45:31.944Z,2.13
2022-12-24T13:48:02.521Z,1.07
2022-12-24T13:50:53.466Z,5.03
2022-12-24T13:53:26.028Z,2.00
2022-12-24T13:56:10.334Z,5.77
2022-12-24T13:58:49.495Z,7.47
2022-12-24T14:01:21.052Z,4.70
2022-12-24T14:03:50.861Z,8.73
2022-12-24T14:06:31.704Z,3.87
2022-12-24T14:09:11.800Z,3.27
2022-12-24T14:12:04.973Z,17.07
2022-12-24T14:14:38.385Z,3.13
2022-12-24T14:17:27.477Z,5.10
2022-12-24T14:19:56.529Z,5.70
2022-12-24T14:22:23.117Z,1.93
2022-12-24T14:25:01.799Z,5.60
2022-12-24T14:27:36.947Z,0.50
2022-12-24T14:30:08.923Z,7.10
2022-12-24T14:32:38.630Z,0.80
2022-12-24T14:35:11.305Z,1.70
2022-12-24T14:37:38.603Z,4.83
2022-12-24T14:40:07.274Z,3.50
2022-12-24T14:42:59.675Z,3.00
2022-12-24T14:45:34.874Z,0.83
2022-12-24T14:48:12.548Z,1.33
2022-12-24T14:50:54.590Z,3.43
2022-12-24T14:53:39.742Z,4.57
2022-12-24T14:56:20.189Z,2.70
2022-12-24T14:58:47.664Z,2.90
2022-12-24T15:01:26.842Z,1.07
2022-12-24T15:04:26.236Z,1.07
2022-12-24T15:06:56.811Z,3.20
2022-12-24T15:09:25.870Z,4.93
2022-12-24T15:11:55.608Z,7.23
2022-12-24T15:14:24.457Z,12.20
2022-12-24T15:17:03.589Z,9.67
2022-12-24T15:19:42.469Z,12.93
2022-12-24T15:22:25.635Z,9.90
2022-12-24T15:24:52.473Z,7.60
2022-12-24T15:27:25.660Z,7.17
2022-12-24T15:29:55.497Z,5.20
2022-12-24T15:32:22.326Z,3.30
2022-12-24T15:34:55.662Z,5.00
2022-12-24T15:37:37.850Z,1.27
2022-12-24T15:40:10.120Z,6.30
2022-12-24T15:42:37.426Z,6.73
2022-12-24T15:45:28.870Z,4.37
2022-12-24T15:47:58.364Z,4.93
2022-12-24T15:50:43.783Z,8.63
2022-12-24T15:53:20.721Z,5.90
2022-12-24T15:56:03.921Z,10.73
2022-12-24T15:58:33.451Z,4.40
2022-12-24T16:01:28.624Z,6.40
2022-12-24T16:03:58.251Z,10.50
2022-12-24T16:06:27.613Z,11.53
2022-12-24T16:08:56.397Z,17.50
2022-12-24T16:11:36.633Z,14.57
2022-12-24T16:14:20.210Z,21.53
2022-12-24T16:16:48.380Z,14.40
2022-12-24T16:19:27.849Z,15.30
2022-12-24T16:22:23.973Z,10.50
2022-12-24T16:24:52.777Z,12.10
2022-12-24T16:27:19.418Z,8.73
2022-12-24T16:29:47.063Z,8.23
2022-12-24T16:32:35.393Z,4.33
2022-12-24T16:35:07.097Z,5.50
2022-12-24T16:37:35.111Z,6.17
2022-12-24T16:40:01.723Z,6.07
2022-12-24T16:42:47.061Z,4.40
2022-12-24T16:45:13.765Z,3.77
2022-12-24T16:47:43.208Z,3.07
2022-12-24T16:50:16.197Z,2.90
2022-12-24T16:52:43.156Z,3.93
2022-12-24T16:55:12.581Z,5.07
2022-12-24T16:57:40.092Z,5.73
2022-12-24T17:00:09.128Z,4.70
2022-12-24T17:02:36.158Z,4.10
2022-12-24T17:05:03.166Z,6.00
2022-12-24T17:07:29.924Z,5.30
2022-12-24T17:09:56.689Z,2.87
2022-12-24T17:12:23.478Z,3.90
2022-12-24T17:14:50.352Z,7.90
2022-12-24T17:17:28.534Z,5.13
2022-12-24T17:19:56.156Z,6.80
2022-12-24T17:22:23.404Z,1.83
2022-12-24T17:24:50.158Z,6.67
2022-12-24T17:27:17.003Z,4.13
2022-12-24T17:29:43.884Z,3.97
2022-12-24T17:32:10.698Z,4.10
2022-12-24T17:34:37.701Z,6.37
2022-12-24T17:37:04.585Z,4.57
2022-12-24T17:39:31.570Z,5.73
2022-12-24T17:41:58.463Z,5.87
2022-12-24T17:44:25.306Z,7.07
2022-12-24T17:46:52.141Z,1.90
2022-12-24T17:49:18.999Z,8.17
2022-12-24T17:51:46.887Z,8.00
2022-12-24T17:54:13.842Z,6.10
2022-12-24T17:56:40.814Z,5.30
2022-12-24T17:59:07.589Z,5.63
2022-12-24T18:01:34.357Z,4.80
2022-12-24T18:04:02.877Z,2.80
2022-12-24T18:06:30.015Z,5.90
2022-12-24T18:08:57.276Z,5.60
2022-12-24T18:11:32.702Z,6.20
2022-12-24T18:14:01.250Z,14.57
2022-12-24T18:16:33.949Z,10.13
2022-12-24T18:19:01.633Z,19.60
2022-12-24T18:21:30.797Z,6.00
2022-12-24T18:23:57.921Z,9.77
2022-12-24T18:26:27.294Z,12.73
2022-12-24T18:28:55.433Z,9.03
2022-12-24T18:31:23.816Z,3.10
2022-12-24T18:33:51.547Z,5.10
2022-12-24T18:36:19.274Z,3.13
2022-12-24T18:38:46.256Z,7.07
2022-12-24T18:41:16.571Z,2.27
2022-12-24T18:43:43.334Z,2.00
2022-12-24T18:46:18.286Z,1.33
2022-12-24T18:48:45.240Z,8.97
2022-12-24T18:51:12.007Z,13.73
2022-12-24T18:53:38.625Z,9.53
2022-12-24T18:56:12.263Z,6.67
2022-12-24T18:58:39.136Z,4.43
2022-12-24T19:01:27.142Z,4.40
2022-12-24T19:03:54.315Z,43.63
2022-12-24T19:06:21.619Z,40.50
2022-12-24T19:08:57.804Z,31.67
2022-12-24T19:11:26.045Z,22.90
2022-12-24T19:13:55.472Z,15.93
2022-12-24T19:16:22.573Z,14.30
2022-12-24T19:18:49.751Z,9.87
2022-12-24T19:21:17.538Z,7.83
2022-12-24T19:23:45.089Z,3.00
2022-12-24T19:26:12.713Z,6.83
2022-12-24T19:28:39.388Z,2.43
2022-12-24T19:31:11.278Z,3.80
2022-12-24T19:33:42.852Z,2.63
2022-12-24T19:36:12.591Z,5.40
2022-12-24T19:38:39.191Z,2.40
2022-12-24T19:41:14.762Z,3.50
2022-12-24T19:43:44.067Z,2.37
2022-12-24T19:46:12.844Z,3.40
2022-12-24T19:48:39.973Z,1.57
2022-12-24T19:51:09.602Z,5.97
2022-12-24T19:53:36.503Z,5.80
2022-12-24T19:56:03.895Z,5.50
2022-12-24T19:58:32.754Z,5.80
2022-12-24T20:01:11.189Z,7.20
2022-12-24T20:03:41.319Z,5.03
2022-12-24T20:06:08.735Z,5.40
2022-12-24T20:08:36.886Z,8.13
2022-12-24T20:11:06.628Z,4.70
2022-12-24T20:13:34.519Z,10.93
2022-12-24T20:16:05.851Z,2.87
2022-12-24T20:18:32.624Z,5.90
2022-12-24T20:21:03.575Z,4.07
2022-12-24T20:23:30.496Z,3.70
2022-12-24T20:26:01.571Z,5.60
2022-12-24T20:28:29.471Z,6.23
2022-12-24T20:30:56.436Z,4.20
2022-12-24T20:33:23.580Z,1.80
2022-12-24T20:35:50.403Z,4.90
2022-12-24T20:38:17.285Z,5.13
2022-12-24T20:40:45.705Z,7.90
2022-12-24T20:43:13.023Z,4.33
2022-12-24T20:45:39.775Z,5.90
2022-12-24T20:48:07.098Z,7.13
2022-12-24T20:50:33.786Z,5.17
2022-12-24T20:53:00.494Z,6.03
2022-12-24T20:55:27.212Z,7.93
2022-12-24T20:57:53.863Z,4.53
2022-12-24T21:00:21.120Z,3.70
2022-12-24T21:02:47.929Z,3.93
2022-12-24T21:05:15.345Z,3.13
2022-12-24T21:07:43.601Z,4.23
2022-12-24T21:10:14.624Z,5.67
2022-12-24T21:12:59.004Z,3.40
2022-12-24T21:15:31.573Z,4.07
2022-12-24T21:17:58.985Z,7.57
2022-12-24T21:20:30.847Z,4.20
2022-12-24T21:23:01.006Z,7.07
2022-12-24T21:25:28.386Z,4.47
2022-12-24T21:27:55.610Z,4.63
2022-12-24T21:30:23.013Z,2.80
2022-12-24T21:32:49.822Z,4.93
2022-12-24T21:35:16.741Z,7.87
2022-12-24T21:37:43.806Z,6.67
2022-12-24T21:40:11.664Z,4.50
2022-12-24T21:42:38.365Z,5.73
2022-12-24T21:45:06.359Z,8.53
2022-12-24T21:47:35.099Z,4.27
2022-12-24T21:50:20.013Z,6.30
2022-12-24T21:52:46.802Z,3.83
2022-12-24T21:55:13.355Z,4.50
2022-12-24T21:57:55.128Z,5.93
2022-12-24T22:00:21.842Z,1.60
2022-12-24T22:02:56.659Z,2.30
2022-12-24T22:05:24.924Z,2.17
2022-12-24T22:08:11.035Z,4.47
2022-12-24T22:10:57.477Z,3.50
2022-12-24T22:13:25.248Z,2.37
2022-12-24T22:15:53.154Z,3.60
2022-12-24T22:18:22.930Z,4.50
2022-12-24T22:20:49.842Z,2.47
2022-12-24T22:23:17.491Z,4.30
2022-12-24T22:25:44.578Z,3.73
2022-12-24T22:28:11.723Z,2.33
2022-12-24T22:30:42.754Z,3.77
2022-12-24T22:33:10.183Z,8.03
2022-12-24T22:35:40.496Z,2.80
2022-12-24T22:38:08.957Z,4.57
2022-12-24T22:40:35.626Z,5.73
2022-12-24T22:43:02.199Z,24.87
2022-12-24T22:45:28.846Z,27.90
2022-12-24T22:47:55.703Z,33.03
2022-12-24T22:50:23.409Z,27.17
2022-12-24T22:52:50.061Z,21.20
2022-12-24T22:55:16.795Z,16.93
2022-12-24T22:57:43.426Z,12.60
2022-12-24T23:00:15.855Z,15.17
2022-12-24T23:02:42.755Z,15.57
2022-12-24T23:05:14.100Z,12.10
2022-12-24T23:07:40.850Z,9.47
2022-12-24T23:10:08.131Z,15.33
2022-12-24T23:12:54.901Z,9.27
2022-12-24T23:15:21.553Z,16.03
2022-12-24T23:17:49.432Z,13.87
2022-12-24T23:20:16.465Z,19.37
2022-12-24T23:22:43.224Z,25.23
2022-12-24T23:25:10.102Z,17.03
2022-12-24T23:27:36.921Z,15.80
2022-12-24T23:30:04.149Z,23.17
2022-12-24T23:32:30.742Z,14.80
2022-12-24T23:34:57.353Z,13.60
2022-12-24T23:37:26.984Z,18.50
2022-12-24T23:39:57.884Z,19.70
2022-12-24T23:42:24.466Z,17.93
2022-12-24T23:44:51.498Z,11.40
2022-12-24T23:47:18.816Z,19.80
2022-12-24T23:49:45.502Z,23.67
2022-12-24T23:52:12.167Z,16.00
2022-12-24T23:54:38.774Z,17.03
2022-12-24T23:57:05.327Z,14.90
2022-12-24T23:59:35.187Z,16.10
